createdAt,value
2018-12-17T00:00:58.178Z,129.23
2018-12-17T00:03:26.706Z,124.53
2018-12-17T00:05:55.653Z,124.30
2018-12-17T00:08:24.495Z,123.33
2018-12-17T00:10:53.297Z,122.80
2018-12-17T00:13:22.049Z,121.97
2018-12-17T00:15:50.734Z,118.40
2018-12-17T00:18:19.339Z,119.43
2018-12-17T00:20:48.002Z,120.57
2018-12-17T00:23:16.570Z,122.43
2018-12-17T00:25:45.443Z,128.50
2018-12-17T00:28:14.971Z,130.37
2018-12-17T00:30:43.553Z,133.00
2018-12-17T00:33:12.177Z,132.33
2018-12-17T00:35:40.703Z,130.63
2018-12-17T00:38:09.271Z,129.07
2018-12-17T00:40:38.022Z,120.77
2018-12-17T00:43:06.588Z,115.80
2018-12-17T00:45:35.373Z,147.90
2018-12-17T00:48:04.078Z,150.20
2018-12-17T00:50:32.617Z,126.00
2018-12-17T00:53:01.226Z,125.53
2018-12-17T00:55:29.804Z,125.37
2018-12-17T00:57:58.362Z,121.33
2018-12-17T01:00:27.117Z,115.80
2018-12-17T01:02:56.131Z,116.77
2018-12-17T01:05:25.087Z,117.77
2018-12-17T01:07:53.674Z,115.80
2018-12-17T01:10:22.363Z,117.97
2018-12-17T01:12:50.951Z,118.13
2018-12-17T01:15:19.488Z,118.70
2018-12-17T01:17:48.066Z,115.67
2018-12-17T01:20:16.700Z,113.23
2018-12-17T01:22:45.443Z,109.30
2018-12-17T01:25:14.009Z,107.80
2018-12-17T01:27:42.556Z,110.10
2018-12-17T01:30:10.888Z,107.53
2018-12-17T01:32:39.805Z,111.27
2018-12-17T01:35:08.465Z,110.00
2018-12-17T01:37:37.127Z,114.80
2018-12-17T01:40:06.300Z,109.93
2018-12-17T01:42:34.912Z,109.60
2018-12-17T01:45:03.660Z,112.60
2018-12-17T01:47:32.436Z,108.93
2018-12-17T01:50:01.181Z,106.70
2018-12-17T01:52:29.925Z,111.97
2018-12-17T01:54:58.827Z,112.57
2018-12-17T01:57:27.484Z,108.37
2018-12-17T01:59:56.041Z,105.80
2018-12-17T02:02:24.794Z,105.43
2018-12-17T02:04:53.371Z,103.43
2018-12-17T02:07:22.122Z,102.10
2018-12-17T02:09:51.216Z,101.50
2018-12-17T02:12:20.006Z,103.93
2018-12-17T02:14:48.577Z,94.20
2018-12-17T02:17:17.133Z,92.13
2018-12-17T02:19:45.856Z,96.03
2018-12-17T02:22:14.623Z,93.90
2018-12-17T02:24:43.168Z,121.57
2018-12-17T02:27:11.801Z,145.37
2018-12-17T02:29:40.492Z,142.10
2018-12-17T02:32:09.149Z,137.30
2018-12-17T02:34:37.797Z,137.40
2018-12-17T02:37:06.415Z,130.37
2018-12-17T02:39:34.982Z,131.60
2018-12-17T02:42:03.583Z,138.10
2018-12-17T02:44:32.218Z,137.07
2018-12-17T02:47:00.761Z,139.17
2018-12-17T02:49:29.680Z,136.17
2018-12-17T02:51:58.239Z,135.97
2018-12-17T02:54:26.788Z,134.80
2018-12-17T02:56:55.564Z,133.73
2018-12-17T02:59:24.077Z,134.97
2018-12-17T03:01:52.595Z,131.93
2018-12-17T03:04:21.249Z,126.43
2018-12-17T03:06:50.066Z,129.83
2018-12-17T03:09:18.802Z,131.97
2018-12-17T03:11:47.437Z,132.07
2018-12-17T03:14:16.047Z,121.90
2018-12-17T03:16:44.712Z,125.80
2018-12-17T03:19:13.286Z,119.97
2018-12-17T03:21:42.012Z,114.43
2018-12-17T03:24:10.625Z,111.50
2018-12-17T03:26:39.147Z,95.63
2018-12-17T03:29:07.841Z,103.97
2018-12-17T03:31:36.901Z,106.10
2018-12-17T03:34:05.482Z,114.10
2018-12-17T03:36:34.424Z,119.10
2018-12-17T03:39:03.114Z,110.03
2018-12-17T03:41:31.783Z,111.43
2018-12-17T03:44:00.322Z,102.53
2018-12-17T03:46:28.858Z,101.33
2018-12-17T03:48:58.078Z,97.07
2018-12-17T03:51:26.925Z,101.70
2018-12-17T03:53:55.452Z,90.63
2018-12-17T03:56:24.053Z,92.40
2018-12-17T03:58:59.053Z,91.13
2018-12-17T04:01:23.475Z,83.47
2018-12-17T04:03:52.010Z,81.13
2018-12-17T04:06:20.557Z,82.70
2018-12-17T04:08:49.249Z,84.07
2018-12-17T04:11:17.772Z,84.53
2018-12-17T04:13:46.681Z,86.07
2018-12-17T04:16:15.279Z,83.93
2018-12-17T04:18:43.830Z,86.73
2018-12-17T04:21:12.384Z,101.20
2018-12-17T04:23:40.943Z,93.53
2018-12-17T04:26:09.447Z,91.80
2018-12-17T04:28:38.233Z,96.43
2018-12-17T04:31:06.831Z,92.47
2018-12-17T04:33:35.652Z,88.20
2018-12-17T04:36:04.156Z,94.00
2018-12-17T04:38:33.271Z,89.60
2018-12-17T04:41:01.850Z,103.63
2018-12-17T04:43:30.423Z,100.80
2018-12-17T04:45:58.930Z,93.83
2018-12-17T04:48:27.493Z,99.03
2018-12-17T04:50:56.028Z,96.37
2018-12-17T04:53:24.686Z,104.07
2018-12-17T04:55:53.270Z,103.07
2018-12-17T04:58:22.246Z,103.03
2018-12-17T05:00:51.538Z,102.73
2018-12-17T05:03:20.208Z,107.73
2018-12-17T05:05:49.024Z,106.30
2018-12-17T05:08:17.596Z,105.53
2018-12-17T05:10:46.177Z,109.33
2018-12-17T05:13:14.841Z,106.77
2018-12-17T05:15:43.511Z,107.50
2018-12-17T05:18:12.071Z,107.23
2018-12-17T05:20:40.944Z,100.30
2018-12-17T05:23:09.639Z,101.43
2018-12-17T05:25:38.216Z,106.60
2018-12-17T05:28:06.842Z,104.53
2018-12-17T05:30:35.416Z,103.50
2018-12-17T05:33:04.408Z,105.33
2018-12-17T05:35:33.035Z,111.63
2018-12-17T05:38:01.541Z,114.17
2018-12-17T05:40:30.502Z,110.90
2018-12-17T05:42:59.211Z,120.93
2018-12-17T05:45:27.874Z,116.83
2018-12-17T05:47:56.377Z,132.00
2018-12-17T05:50:25.026Z,121.03
2018-12-17T05:52:53.506Z,117.70
2018-12-17T05:55:22.015Z,114.17
2018-12-17T05:57:50.975Z,103.60
2018-12-17T06:00:19.700Z,98.90
2018-12-17T06:02:48.383Z,98.00
2018-12-17T06:05:17.171Z,95.27
2018-12-17T06:07:47.139Z,94.97
2018-12-17T06:10:15.655Z,99.33
2018-12-17T06:12:44.184Z,100.83
2018-12-17T06:15:12.755Z,100.27
2018-12-17T06:17:41.398Z,109.70
2018-12-17T06:20:10.234Z,119.77
2018-12-17T06:22:38.931Z,126.90
2018-12-17T06:25:07.577Z,125.43
2018-12-17T06:27:36.901Z,112.77
2018-12-17T06:30:07.309Z,114.00
2018-12-17T06:32:36.862Z,116.53
2018-12-17T06:35:06.180Z,123.47
2018-12-17T06:37:34.827Z,117.60
2018-12-17T06:40:10.322Z,106.27
2018-12-17T06:42:35.102Z,95.47
2018-12-17T06:45:04.088Z,93.73
2018-12-17T06:47:32.923Z,92.03
2018-12-17T06:50:01.821Z,206.40
2018-12-17T06:52:30.443Z,143.17
2018-12-17T06:54:59.247Z,136.97
2018-12-17T06:57:28.071Z,106.67
2018-12-17T06:59:56.839Z,102.47
2018-12-17T07:02:25.338Z,100.40
2018-12-17T07:04:54.105Z,103.23
2018-12-17T07:07:23.047Z,112.97
2018-12-17T07:09:51.665Z,110.80
2018-12-17T07:12:20.170Z,108.77
2018-12-17T07:14:48.771Z,108.23
2018-12-17T07:17:17.255Z,115.57
2018-12-17T07:19:45.934Z,115.50
2018-12-17T07:22:14.702Z,122.50
2018-12-17T07:24:43.477Z,119.90
2018-12-17T07:27:12.000Z,112.40
2018-12-17T07:29:40.527Z,111.87
2018-12-17T07:32:09.343Z,106.40
2018-12-17T07:34:38.228Z,102.27
2018-12-17T07:37:07.049Z,111.50
2018-12-17T07:39:35.855Z,112.07
2018-12-17T07:42:04.487Z,107.07
2018-12-17T07:44:33.034Z,112.07
2018-12-17T07:47:02.768Z,108.20
2018-12-17T07:49:32.215Z,110.80
2018-12-17T07:52:00.955Z,113.53
2018-12-17T07:54:29.992Z,124.57
2018-12-17T07:56:58.894Z,123.57
2018-12-17T07:59:27.553Z,130.03
2018-12-17T08:01:56.596Z,130.23
2018-12-17T08:04:25.100Z,129.90
2018-12-17T08:06:53.682Z,132.93
2018-12-17T08:09:22.308Z,132.57
2018-12-17T08:11:50.795Z,125.17
2018-12-17T08:14:19.482Z,120.37
2018-12-17T08:16:48.573Z,120.17
2018-12-17T08:19:17.391Z,126.47
2018-12-17T08:21:46.047Z,152.50
2018-12-17T08:24:14.690Z,141.30
2018-12-17T08:26:43.496Z,145.77
2018-12-17T08:29:11.970Z,145.07
2018-12-17T08:31:40.605Z,145.70
2018-12-17T08:34:09.077Z,150.33
2018-12-17T08:36:37.604Z,143.63
2018-12-17T08:39:08.301Z,146.67
2018-12-17T08:41:36.828Z,141.97
2018-12-17T08:44:05.405Z,137.97
2018-12-17T08:46:33.883Z,145.77
2018-12-17T08:49:02.471Z,145.37
2018-12-17T08:51:30.973Z,159.67
2018-12-17T08:53:59.530Z,164.37
2018-12-17T08:56:27.992Z,165.83
2018-12-17T08:58:57.463Z,154.27
2018-12-17T09:01:26.437Z,157.93
2018-12-17T09:03:54.967Z,166.83
2018-12-17T09:06:23.516Z,162.13
2018-12-17T09:08:52.041Z,173.83
2018-12-17T09:11:20.751Z,181.27
2018-12-17T09:13:49.235Z,168.30
2018-12-17T09:16:17.853Z,166.33
2018-12-17T09:18:46.530Z,170.57
2018-12-17T09:21:15.061Z,158.93
2018-12-17T09:23:43.635Z,149.20
2018-12-17T09:26:12.310Z,161.97
2018-12-17T09:28:41.014Z,171.40
2018-12-17T09:31:09.772Z,179.80
2018-12-17T09:33:38.352Z,188.60
2018-12-17T09:36:07.377Z,186.93
2018-12-17T09:38:35.972Z,175.50
2018-12-17T09:41:04.587Z,158.03
2018-12-17T09:43:33.109Z,187.83
2018-12-17T09:46:01.596Z,187.80
2018-12-17T09:48:30.068Z,210.87
2018-12-17T09:50:58.586Z,198.93
2018-12-17T09:53:27.040Z,176.00
2018-12-17T09:55:55.651Z,182.47
2018-12-17T09:58:24.225Z,196.60
2018-12-17T10:00:52.739Z,186.77
2018-12-17T10:03:21.336Z,178.00
2018-12-17T10:05:49.922Z,167.03
2018-12-17T10:08:18.419Z,150.17
2018-12-17T10:10:48.099Z,141.67
2018-12-17T10:13:16.698Z,133.43
2018-12-17T10:15:45.359Z,103.97
2018-12-17T10:18:14.157Z,99.33
2018-12-17T10:20:42.654Z,82.87
2018-12-17T10:23:11.186Z,72.23
2018-12-17T10:25:39.706Z,68.10
2018-12-17T10:28:08.271Z,69.77
2018-12-17T10:30:36.962Z,64.23
2018-12-17T10:33:05.980Z,67.50
2018-12-17T10:35:34.717Z,62.97
2018-12-17T10:38:03.230Z,66.00
2018-12-17T10:40:33.807Z,82.50
2018-12-17T10:43:02.443Z,93.17
2018-12-17T10:45:30.947Z,97.57
2018-12-17T10:47:59.741Z,91.33
2018-12-17T10:50:29.426Z,96.83
2018-12-17T10:52:58.162Z,85.73
2018-12-17T10:55:27.020Z,71.47
2018-12-17T10:57:55.537Z,63.53
2018-12-17T11:00:29.519Z,59.53
2018-12-17T11:03:01.626Z,60.77
2018-12-17T11:05:30.658Z,67.70
2018-12-17T11:07:59.188Z,68.70
2018-12-17T11:10:27.730Z,71.20
2018-12-17T11:12:56.543Z,84.73
2018-12-17T11:15:25.108Z,93.10
2018-12-17T11:17:53.783Z,95.87
2018-12-17T11:20:23.776Z,94.53
2018-12-17T11:22:52.366Z,107.47
2018-12-17T11:25:20.995Z,98.73
2018-12-17T11:27:49.949Z,98.43
2018-12-17T11:30:18.888Z,87.20
2018-12-17T11:32:47.801Z,87.97
2018-12-17T11:35:16.810Z,92.77
2018-12-17T11:37:45.513Z,91.07
2018-12-17T11:40:14.127Z,87.67
2018-12-17T11:42:43.229Z,88.33
2018-12-17T11:45:11.763Z,90.80
2018-12-17T11:47:40.346Z,90.63
2018-12-17T11:50:09.104Z,90.60
2018-12-17T11:52:37.631Z,85.07
2018-12-17T11:55:07.471Z,83.50
2018-12-17T11:58:05.714Z,80.43
2018-12-17T12:00:34.603Z,79.43
2018-12-17T12:03:03.424Z,76.00
2018-12-17T12:05:32.508Z,70.73
2018-12-17T12:08:01.172Z,69.17
2018-12-17T12:10:29.913Z,66.60
2018-12-17T12:12:58.800Z,70.97
2018-12-17T12:15:27.971Z,70.93
2018-12-17T12:17:56.637Z,74.30
2018-12-17T12:20:25.441Z,74.17
2018-12-17T12:22:54.110Z,76.50
2018-12-17T12:25:23.109Z,74.90
2018-12-17T12:27:52.104Z,75.40
2018-12-17T12:30:21.132Z,78.17
2018-12-17T12:32:49.894Z,82.60
2018-12-17T12:35:18.791Z,88.53
2018-12-17T12:37:47.454Z,93.77
2018-12-17T12:40:15.997Z,104.07
2018-12-17T12:42:51.380Z,103.20
2018-12-17T12:45:15.302Z,102.17
2018-12-17T12:47:43.839Z,103.07
2018-12-17T12:50:12.483Z,104.17
2018-12-17T12:52:41.122Z,99.07
2018-12-17T12:55:09.961Z,104.57
2018-12-17T12:57:38.597Z,104.73
2018-12-17T13:00:11.782Z,106.23
2018-12-17T13:02:40.456Z,107.37
2018-12-17T13:05:09.550Z,117.07
2018-12-17T13:07:38.107Z,109.67
2018-12-17T13:10:10.296Z,108.63
2018-12-17T13:12:39.141Z,104.90
2018-12-17T13:15:09.509Z,103.57
2018-12-17T13:17:38.389Z,105.93
2018-12-17T13:20:08.918Z,99.80
2018-12-17T13:22:37.605Z,95.80
2018-12-17T13:25:09.227Z,98.43
2018-12-17T13:27:38.023Z,102.60
2018-12-17T13:30:09.086Z,101.83
2018-12-17T13:32:37.606Z,100.60
2018-12-17T13:35:07.491Z,99.47
2018-12-17T13:37:36.063Z,99.33
2018-12-17T13:40:06.449Z,107.50
2018-12-17T13:42:35.062Z,107.07
2018-12-17T13:45:03.926Z,107.23
2018-12-17T13:47:32.769Z,102.93
2018-12-17T13:50:05.571Z,107.63
2018-12-17T13:52:39.605Z,110.57
2018-12-17T13:55:08.535Z,105.53
2018-12-17T13:57:37.002Z,106.33
2018-12-17T14:00:07.355Z,107.13
2018-12-17T14:02:35.874Z,106.17
2018-12-17T14:05:04.895Z,106.80
2018-12-17T14:07:33.838Z,107.77
2018-12-17T14:10:07.960Z,111.73
2018-12-17T14:12:36.755Z,111.43
2018-12-17T14:15:05.945Z,119.40
2018-12-17T14:17:36.922Z,115.60
2018-12-17T14:20:13.046Z,120.57
2018-12-17T14:22:41.723Z,117.67
2018-12-17T14:25:10.423Z,120.17
2018-12-17T14:27:39.028Z,121.40
2018-12-17T14:30:09.630Z,125.93
2018-12-17T14:32:38.234Z,126.40
2018-12-17T14:35:07.001Z,128.70
2018-12-17T14:37:39.915Z,158.80
2018-12-17T14:40:08.955Z,174.57
2018-12-17T14:42:37.742Z,160.77
2018-12-17T14:45:07.864Z,148.83
2018-12-17T14:47:36.363Z,144.77
2018-12-17T14:50:05.804Z,150.97
2018-12-17T14:52:35.397Z,163.43
2018-12-17T14:55:04.674Z,186.87
2018-12-17T14:57:33.419Z,190.43
2018-12-17T15:00:02.667Z,184.97
2018-12-17T15:02:31.426Z,170.23
2018-12-17T15:05:00.216Z,161.40
2018-12-17T15:07:29.860Z,170.70
2018-12-17T15:09:58.856Z,173.53
2018-12-17T15:12:28.663Z,180.57
2018-12-17T15:14:57.350Z,186.03
2018-12-17T15:17:25.927Z,173.50
2018-12-17T15:19:54.900Z,170.53
2018-12-17T15:22:23.551Z,153.80
2018-12-17T15:24:52.288Z,162.10
2018-12-17T15:27:21.577Z,153.90
2018-12-17T15:29:50.188Z,152.23
2018-12-17T15:32:18.841Z,141.67
2018-12-17T15:34:47.754Z,139.40
2018-12-17T15:37:17.470Z,148.00
2018-12-17T15:39:46.065Z,151.90
2018-12-17T15:42:14.740Z,136.97
2018-12-17T15:44:43.349Z,140.67
2018-12-17T15:47:12.238Z,139.33
2018-12-17T15:49:41.383Z,141.97
2018-12-17T15:52:11.217Z,137.67
2018-12-17T15:54:39.921Z,145.63
2018-12-17T15:57:08.563Z,147.63
2018-12-17T15:59:37.539Z,157.23
2018-12-17T16:02:06.786Z,153.23
2018-12-17T16:04:35.437Z,172.40
2018-12-17T16:07:05.153Z,168.60
2018-12-17T16:09:33.681Z,181.17
2018-12-17T16:12:02.251Z,211.43
2018-12-17T16:14:31.200Z,254.27
2018-12-17T16:16:59.991Z,234.80
2018-12-17T16:19:28.812Z,212.10
2018-12-17T16:21:57.406Z,221.10
2018-12-17T16:24:26.072Z,217.80
2018-12-17T16:26:54.972Z,220.17
2018-12-17T16:29:23.856Z,223.13
2018-12-17T16:31:57.217Z,218.93
2018-12-17T16:34:23.371Z,223.90
2018-12-17T16:36:52.160Z,225.03
2018-12-17T16:39:20.973Z,222.07
2018-12-17T16:41:49.941Z,234.30
2018-12-17T16:44:18.767Z,223.17
2018-12-17T16:46:47.617Z,202.10
2018-12-17T16:49:17.507Z,199.30
2018-12-17T16:51:46.139Z,190.40
2018-12-17T16:54:14.742Z,191.90
2018-12-17T16:56:43.245Z,200.60
2018-12-17T16:59:11.867Z,201.80
2018-12-17T17:01:40.386Z,187.20
2018-12-17T17:04:08.885Z,181.40
2018-12-17T17:06:37.628Z,198.77
2018-12-17T17:09:08.070Z,200.97
2018-12-17T17:11:37.563Z,196.03
2018-12-17T17:14:06.247Z,182.77
2018-12-17T17:16:35.020Z,180.73
2018-12-17T17:19:03.910Z,179.17
2018-12-17T17:21:32.483Z,181.43
2018-12-17T17:24:01.179Z,170.57
2018-12-17T17:26:30.300Z,169.23
2018-12-17T17:28:58.892Z,165.17
2018-12-17T17:31:27.606Z,168.20
2018-12-17T17:33:56.173Z,167.67
2018-12-17T17:36:24.808Z,162.13
2018-12-17T17:38:53.418Z,165.70
2018-12-17T17:41:21.918Z,163.70
2018-12-17T17:43:50.670Z,164.20
2018-12-17T17:46:19.286Z,164.07
2018-12-17T17:48:48.000Z,160.60
2018-12-17T17:51:16.672Z,172.33
2018-12-17T17:53:45.391Z,171.27
2018-12-17T17:56:14.129Z,182.70
2018-12-17T17:58:42.988Z,172.50
2018-12-17T18:01:11.878Z,180.47
2018-12-17T18:03:40.666Z,175.97
2018-12-17T18:06:16.068Z,171.40
2018-12-17T18:08:39.993Z,178.33
2018-12-17T18:11:08.537Z,172.70
2018-12-17T18:13:37.487Z,165.90
2018-12-17T18:16:06.344Z,159.50
2018-12-17T18:18:35.855Z,158.27
2018-12-17T18:21:04.537Z,161.13
2018-12-17T18:23:33.410Z,160.67
2018-12-17T18:26:02.868Z,163.43
2018-12-17T18:28:31.725Z,161.67
2018-12-17T18:31:00.715Z,163.00
2018-12-17T18:33:29.605Z,168.40
2018-12-17T18:35:58.638Z,174.77
2018-12-17T18:38:27.390Z,161.67
2018-12-17T18:40:56.045Z,165.87
2018-12-17T18:43:24.859Z,163.40
2018-12-17T18:45:53.648Z,165.03
2018-12-17T18:48:22.418Z,163.73
2018-12-17T18:50:51.006Z,165.87
2018-12-17T18:53:19.548Z,163.93
2018-12-17T18:55:48.324Z,174.63
2018-12-17T18:58:17.179Z,171.43
2018-12-17T19:00:46.303Z,164.40
2018-12-17T19:03:15.167Z,169.53
2018-12-17T19:05:43.880Z,175.23
2018-12-17T19:08:12.643Z,175.90
2018-12-17T19:10:46.764Z,171.90
2018-12-17T19:13:15.674Z,173.03
2018-12-17T19:15:44.438Z,168.33
2018-12-17T19:18:13.360Z,186.17
2018-12-17T19:20:42.105Z,172.57
2018-12-17T19:23:10.901Z,169.20
2018-12-17T19:25:39.509Z,166.50
2018-12-17T19:28:08.647Z,173.13
2018-12-17T19:30:37.471Z,175.07
2018-12-17T19:33:06.312Z,171.23
2018-12-17T19:35:35.213Z,166.00
2018-12-17T19:38:04.135Z,162.43
2018-12-17T19:40:32.928Z,176.83
2018-12-17T19:43:01.780Z,170.00
2018-12-17T19:45:30.743Z,164.37
2018-12-17T19:47:59.577Z,171.17
2018-12-17T19:50:28.543Z,165.63
2018-12-17T19:52:57.343Z,163.53
2018-12-17T19:55:26.151Z,165.90
2018-12-17T19:57:54.957Z,163.47
2018-12-17T20:00:23.858Z,164.03
2018-12-17T20:02:52.963Z,167.27
2018-12-17T20:05:22.255Z,169.20
2018-12-17T20:07:51.132Z,178.77
2018-12-17T20:10:26.308Z,185.13
2018-12-17T20:12:55.492Z,174.20
2018-12-17T20:15:24.376Z,175.80
2018-12-17T20:17:52.888Z,163.93
2018-12-17T20:20:21.607Z,161.47
2018-12-17T20:22:50.463Z,167.00
2018-12-17T20:25:19.118Z,163.70
2018-12-17T20:27:47.992Z,167.27
2018-12-17T20:30:16.897Z,169.47
2018-12-17T20:32:45.995Z,176.23
2018-12-17T20:35:14.955Z,177.23
2018-12-17T20:37:43.852Z,172.10
2018-12-17T20:40:12.753Z,160.20
2018-12-17T20:42:41.643Z,147.93
2018-12-17T20:45:10.611Z,141.40
2018-12-17T20:47:39.536Z,142.83
2018-12-17T20:50:09.781Z,144.03
2018-12-17T20:52:38.606Z,148.53
2018-12-17T20:55:07.949Z,134.43
2018-12-17T20:57:36.752Z,127.43
2018-12-17T21:00:06.606Z,126.77
2018-12-17T21:02:37.678Z,125.70
2018-12-17T21:05:06.937Z,118.77
2018-12-17T21:07:35.835Z,121.97
2018-12-17T21:10:05.735Z,122.70
2018-12-17T21:12:34.487Z,120.23
2018-12-17T21:15:03.362Z,122.20
2018-12-17T21:17:32.184Z,118.63
2018-12-17T21:20:01.062Z,117.47
2018-12-17T21:22:29.827Z,117.53
2018-12-17T21:24:59.119Z,116.37
2018-12-17T21:27:28.147Z,124.90
2018-12-17T21:29:56.907Z,132.43
2018-12-17T21:32:25.798Z,131.70
2018-12-17T21:34:54.832Z,123.70
2018-12-17T21:37:23.926Z,108.73
2018-12-17T21:39:52.530Z,109.80
2018-12-17T21:42:21.490Z,108.77
2018-12-17T21:44:50.482Z,106.40
2018-12-17T21:47:19.262Z,115.23
2018-12-17T21:49:48.131Z,104.13
2018-12-17T21:52:16.964Z,105.87
2018-12-17T21:54:45.808Z,107.43
2018-12-17T21:57:14.619Z,114.13
2018-12-17T21:59:43.538Z,103.10
2018-12-17T22:02:13.285Z,104.43
2018-12-17T22:04:42.482Z,103.37
2018-12-17T22:07:11.567Z,101.73
2018-12-17T22:09:40.721Z,98.40
2018-12-17T22:12:10.309Z,96.87
2018-12-17T22:14:39.829Z,97.60
2018-12-17T22:17:09.471Z,95.30
2018-12-17T22:19:38.596Z,96.57
2018-12-17T22:22:08.249Z,96.17
2018-12-17T22:24:38.487Z,95.93
2018-12-17T22:27:09.123Z,95.67
2018-12-17T22:29:37.862Z,90.67
2018-12-17T22:32:06.746Z,95.73
2018-12-17T22:34:35.478Z,99.60
2018-12-17T22:37:04.295Z,99.20
2018-12-17T22:39:33.084Z,96.03
2018-12-17T22:42:01.749Z,100.33
2018-12-17T22:44:30.580Z,98.77
2018-12-17T22:46:59.604Z,99.10
2018-12-17T22:49:28.650Z,95.47
2018-12-17T22:51:57.266Z,99.43
2018-12-17T22:54:25.839Z,100.83
2018-12-17T22:56:54.443Z,97.50
2018-12-17T22:59:23.148Z,97.80
2018-12-17T23:01:51.852Z,96.07
2018-12-17T23:04:20.702Z,89.63
2018-12-17T23:06:49.404Z,90.13
2018-12-17T23:09:17.018Z,92.27
2018-12-17T23:12:02.413Z,89.73
2018-12-17T23:14:42.277Z,85.37
2018-12-17T23:17:22.245Z,85.60
2018-12-17T23:19:50.867Z,83.93
2018-12-17T23:22:21.143Z,88.30
2018-12-17T23:24:50.104Z,84.53
2018-12-17T23:27:18.895Z,82.50
2018-12-17T23:29:47.680Z,80.17
2018-12-17T23:32:16.269Z,74.97
2018-12-17T23:34:44.847Z,78.90
2018-12-17T23:37:13.600Z,78.47
2018-12-17T23:39:42.271Z,72.00
2018-12-17T23:42:11.110Z,75.03
2018-12-17T23:44:39.852Z,70.50
2018-12-17T23:47:08.550Z,69.90
2018-12-17T23:49:37.379Z,71.27
2018-12-17T23:52:06.023Z,70.10
2018-12-17T23:54:34.777Z,67.13
2018-12-17T23:57:03.632Z,67.87
2018-12-17T23:59:32.285Z,67.60
